sensor_id;sensor_type;location;lat;lon;timestamp;pressure;altitude;pressure_sealevel;temperature;humidity
2294;BME280;1155;42.644;23.264;2023-04-30T00:02:19;60107.78;;;-140.67;100.00
2294;BME280;1155;42.644;23.264;2023-04-30T00:04:46;60085.28;;;-140.67;100.00
2294;BME280;1155;42.644;23.264;2023-04-30T00:07:14;60093.47;;;-140.67;100.00
2294;BME280;1155;42.644;23.264;2023-04-30T00:09:41;60097.56;;;-140.67;100.00
2294;BME280;1155;42.644;23.264;2023-04-30T00:12:08;60097.56;;;-140.67;100.00
2294;BME280;1155;42.644;23.264;2023-04-30T00:14:34;60103.69;;;-140.67;100.00
2294;BME280;1155;42.644;23.264;2023-04-30T00:17:02;60089.38;;;-140.67;100.00
2294;BME280;1155;42.644;23.264;2023-04-30T00:19:28;60091.41;;;-140.67;100.00
2294;BME280;1155;42.644;23.264;2023-04-30T00:21:55;60103.69;;;-140.67;100.00
2294;BME280;1155;42.644;23.264;2023-04-30T00:24:23;60073.00;;;-140.67;100.00
2294;BME280;1155;42.644;23.264;2023-04-30T00:26:50;60077.09;;;-140.67;100.00
2294;BME280;1155;42.644;23.264;2023-04-30T00:29:17;60097.56;;;-140.67;100.00
2294;BME280;1155;42.644;23.264;2023-04-30T00:31:44;60097.56;;;-140.67;100.00
2294;BME280;1155;42.644;23.264;2023-04-30T00:34:11;60089.38;;;-140.67;100.00
2294;BME280;1155;42.644;23.264;2023-04-30T00:36:37;60073.00;;;-140.67;100.00
2294;BME280;1155;42.644;23.264;2023-04-30T00:39:05;60101.66;;;-140.67;100.00
2294;BME280;1155;42.644;23.264;2023-04-30T00:41:36;60097.56;;;-140.67;100.00
2294;BME280;1155;42.644;23.264;2023-04-30T00:44:04;60091.41;;;-140.67;100.00
2294;BME280;1155;42.644;23.264;2023-04-30T00:46:31;60107.78;;;-140.67;100.00
2294;BME280;1155;42.644;23.264;2023-04-30T00:48:57;60077.09;;;-140.67;100.00
2294;BME280;1155;42.644;23.264;2023-04-30T00:51:30;60085.28;;;-140.67;100.00
2294;BME280;1155;42.644;23.264;2023-04-30T00:53:59;60111.91;;;-140.67;100.00
2294;BME280;1155;42.644;23.264;2023-04-30T00:56:27;60124.19;;;-140.67;100.00
2294;BME280;1155;42.644;23.264;2023-04-30T00:58:56;60105.75;;;-140.67;100.00
2294;BME280;1155;42.644;23.264;2023-04-30T01:01:23;60093.47;;;-140.67;100.00
2294;BME280;1155;42.644;23.264;2023-04-30T01:03:50;60085.28;;;-140.67;100.00
2294;BME280;1155;42.644;23.264;2023-04-30T01:06:17;60093.47;;;-140.67;100.00
2294;BME280;1155;42.644;23.264;2023-04-30T01:08:44;60111.91;;;-140.67;100.00
2294;BME280;1155;42.644;23.264;2023-04-30T01:11:21;60089.38;;;-140.67;100.00
2294;BME280;1155;42.644;23.264;2023-04-30T01:14:01;60093.47;;;-140.67;100.00
2294;BME280;1155;42.644;23.264;2023-04-30T01:16:35;60091.41;;;-140.67;100.00
2294;BME280;1155;42.644;23.264;2023-04-30T01:19:08;60111.91;;;-140.67;100.00
2294;BME280;1155;42.644;23.264;2023-04-30T01:21:38;60101.66;;;-140.67;100.00
2294;BME280;1155;42.644;23.264;2023-04-30T01:24:27;60097.56;;;-140.67;100.00
2294;BME280;1155;42.644;23.264;2023-04-30T01:27:08;60105.75;;;-140.67;100.00
2294;BME280;1155;42.644;23.264;2023-04-30T01:29:41;60083.22;;;-140.67;97.38
2294;BME280;1155;42.644;23.264;2023-04-30T01:32:09;60085.28;;;-140.67;98.13
2294;BME280;1155;42.644;23.264;2023-04-30T01:34:36;60118.03;;;-140.67;94.07
2294;BME280;1155;42.644;23.264;2023-04-30T01:37:11;60093.47;;;-140.67;94.00
2294;BME280;1155;42.644;23.264;2023-04-30T01:40:02;60097.56;;;-140.67;95.00
2294;BME280;1155;42.644;23.264;2023-04-30T01:42:40;60089.38;;;-140.67;95.38
2294;BME280;1155;42.644;23.264;2023-04-30T01:45:35;60093.47;;;-140.67;98.68
2294;BME280;1155;42.644;23.264;2023-04-30T01:48:13;60105.75;;;-140.67;96.76
2294;BME280;1155;42.644;23.264;2023-04-30T01:50:48;60085.28;;;-140.67;95.81
2294;BME280;1155;42.644;23.264;2023-04-30T01:53:22;60093.47;;;-140.67;100.00
2294;BME280;1155;42.644;23.264;2023-04-30T01:55:55;60105.75;;;-140.67;100.00
2294;BME280;1155;42.644;23.264;2023-04-30T01:58:23;60077.09;;;-140.67;100.00
2294;BME280;1155;42.644;23.264;2023-04-30T02:00:52;60077.09;;;-140.67;100.00
2294;BME280;1155;42.644;23.264;2023-04-30T02:03:19;60089.38;;;-140.67;100.00
2294;BME280;1155;42.644;23.264;2023-04-30T02:05:46;60083.22;;;-140.67;100.00
2294;BME280;1155;42.644;23.264;2023-04-30T02:08:13;60087.31;;;-140.67;100.00
2294;BME280;1155;42.644;23.264;2023-04-30T02:10:40;60093.47;;;-140.67;100.00
2294;BME280;1155;42.644;23.264;2023-04-30T02:13:07;60105.75;;;-140.67;100.00
2294;BME280;1155;42.644;23.264;2023-04-30T02:15:33;60089.38;;;-140.67;100.00
2294;BME280;1155;42.644;23.264;2023-04-30T02:18:05;60109.84;;;-140.67;100.00
2294;BME280;1155;42.644;23.264;2023-04-30T02:20:32;60091.41;;;-140.67;100.00
2294;BME280;1155;42.644;23.264;2023-04-30T02:22:58;60085.28;;;-140.67;100.00
2294;BME280;1155;42.644;23.264;2023-04-30T02:25:25;60075.03;;;-140.67;100.00
2294;BME280;1155;42.644;23.264;2023-04-30T02:27:52;60105.75;;;-140.67;100.00
2294;BME280;1155;42.644;23.264;2023-04-30T02:30:20;60081.19;;;-140.67;100.00
2294;BME280;1155;42.644;23.264;2023-04-30T02:32:47;60116.00;;;-140.67;100.00
2294;BME280;1155;42.644;23.264;2023-04-30T02:35:15;60093.47;;;-140.67;100.00
2294;BME280;1155;42.644;23.264;2023-04-30T02:37:42;60109.84;;;-140.67;100.00
2294;BME280;1155;42.644;23.264;2023-04-30T02:40:10;60089.38;;;-140.67;100.00
2294;BME280;1155;42.644;23.264;2023-04-30T02:42:37;60103.69;;;-140.67;100.00
2294;BME280;1155;42.644;23.264;2023-04-30T02:45:04;60081.19;;;-140.67;100.00
2294;BME280;1155;42.644;23.264;2023-04-30T02:47:31;60103.69;;;-140.67;100.00
2294;BME280;1155;42.644;23.264;2023-04-30T02:49:58;60113.94;;;-140.67;100.00
2294;BME280;1155;42.644;23.264;2023-04-30T02:52:26;60122.13;;;-140.67;100.00
2294;BME280;1155;42.644;23.264;2023-04-30T02:54:53;60097.56;;;-140.67;100.00
2294;BME280;1155;42.644;23.264;2023-04-30T02:57:20;60095.50;;;-140.67;100.00
2294;BME280;1155;42.644;23.264;2023-04-30T02:59:46;60126.22;;;-140.67;100.00
2294;BME280;1155;42.644;23.264;2023-04-30T03:02:13;60093.47;;;-140.67;100.00
2294;BME280;1155;42.644;23.264;2023-04-30T03:04:41;60113.94;;;-140.67;100.00
2294;BME280;1155;42.644;23.264;2023-04-30T03:07:07;60093.47;;;-140.67;100.00
2294;BME280;1155;42.644;23.264;2023-04-30T03:09:35;60105.75;;;-140.67;100.00
2294;BME280;1155;42.644;23.264;2023-04-30T03:12:03;60095.50;;;-140.67;100.00
2294;BME280;1155;42.644;23.264;2023-04-30T03:14:29;60109.84;;;-140.67;90.29
2294;BME280;1155;42.644;23.264;2023-04-30T03:16:56;60134.41;;;-140.67;88.67
2294;BME280;1155;42.644;23.264;2023-04-30T03:19:23;60087.31;;;-140.67;78.80
2294;BME280;1155;42.644;23.264;2023-04-30T03:21:50;60099.59;;;-140.67;86.79
2294;BME280;1155;42.644;23.264;2023-04-30T03:24:17;60118.03;;;-140.67;100.00
2294;BME280;1155;42.644;23.264;2023-04-30T03:26:45;60097.56;;;-140.67;100.00
2294;BME280;1155;42.644;23.264;2023-04-30T03:29:12;60116.00;;;-140.67;100.00
2294;BME280;1155;42.644;23.264;2023-04-30T03:31:39;60101.66;;;-140.67;100.00
2294;BME280;1155;42.644;23.264;2023-04-30T03:34:06;60093.47;;;-140.67;100.00
2294;BME280;1155;42.644;23.264;2023-04-30T03:36:33;60101.66;;;-140.67;97.18
2294;BME280;1155;42.644;23.264;2023-04-30T03:39:00;60097.56;;;-140.67;92.99
2294;BME280;1155;42.644;23.264;2023-04-30T03:41:26;60095.50;;;-140.67;100.00
2294;BME280;1155;42.644;23.264;2023-04-30T03:43:55;60116.00;;;-140.67;100.00
2294;BME280;1155;42.644;23.264;2023-04-30T03:46:22;60113.94;;;-140.67;100.00
2294;BME280;1155;42.644;23.264;2023-04-30T03:48:49;60085.28;;;-140.67;100.00
2294;BME280;1155;42.644;23.264;2023-04-30T03:51:16;60091.41;;;-140.67;100.00
2294;BME280;1155;42.644;23.264;2023-04-30T03:53:44;60073.00;;;-140.67;100.00
2294;BME280;1155;42.644;23.264;2023-04-30T03:56:11;60099.59;;;-140.67;100.00
2294;BME280;1155;42.644;23.264;2023-04-30T03:58:38;60093.47;;;-140.67;100.00
2294;BME280;1155;42.644;23.264;2023-04-30T04:01:06;60097.56;;;-140.67;100.00
2294;BME280;1155;42.644;23.264;2023-04-30T04:03:33;60079.13;;;-140.67;100.00
2294;BME280;1155;42.644;23.264;2023-04-30T04:06:00;60105.75;;;-140.67;100.00
2294;BME280;1155;42.644;23.264;2023-04-30T04:08:27;60101.66;;;-140.67;100.00
2294;BME280;1155;42.644;23.264;2023-04-30T04:10:54;60109.84;;;-140.67;100.00
2294;BME280;1155;42.644;23.264;2023-04-30T04:13:20;60095.50;;;-140.67;100.00
2294;BME280;1155;42.644;23.264;2023-04-30T04:15:47;60107.78;;;-140.67;100.00
2294;BME280;1155;42.644;23.264;2023-04-30T04:18:15;60105.75;;;-140.67;100.00
2294;BME280;1155;42.644;23.264;2023-04-30T04:20:42;60101.66;;;-140.67;100.00
2294;BME280;1155;42.644;23.264;2023-04-30T04:23:09;60101.66;;;-140.67;100.00
2294;BME280;1155;42.644;23.264;2023-04-30T04:25:36;60099.59;;;-140.67;100.00
2294;BME280;1155;42.644;23.264;2023-04-30T04:28:03;60111.91;;;-140.67;100.00
2294;BME280;1155;42.644;23.264;2023-04-30T04:30:30;60118.03;;;-140.67;100.00
2294;BME280;1155;42.644;23.264;2023-04-30T04:32:58;60113.94;;;-140.67;100.00
2294;BME280;1155;42.644;23.264;2023-04-30T04:35:26;60109.84;;;-140.67;96.80
2294;BME280;1155;42.644;23.264;2023-04-30T04:37:53;60124.19;;;-140.67;82.65
2294;BME280;1155;42.644;23.264;2023-04-30T04:40:20;60099.59;;;-140.67;93.66
2294;BME280;1155;42.644;23.264;2023-04-30T04:42:48;60134.41;;;-140.67;98.20
2294;BME280;1155;42.644;23.264;2023-04-30T04:45:16;60109.84;;;-140.67;100.00
2294;BME280;1155;42.644;23.264;2023-04-30T04:47:43;60083.22;;;-140.67;100.00
2294;BME280;1155;42.644;23.264;2023-04-30T04:50:10;60128.28;;;-140.67;100.00
2294;BME280;1155;42.644;23.264;2023-04-30T04:52:38;60103.69;;;-140.67;100.00
2294;BME280;1155;42.644;23.264;2023-04-30T04:55:06;60109.84;;;-140.67;100.00
2294;BME280;1155;42.644;23.264;2023-04-30T04:57:33;60113.94;;;-140.67;100.00
2294;BME280;1155;42.644;23.264;2023-04-30T04:59:59;60118.03;;;-140.67;100.00
2294;BME280;1155;42.644;23.264;2023-04-30T05:02:26;60134.41;;;-140.67;100.00
2294;BME280;1155;42.644;23.264;2023-04-30T05:04:54;60101.66;;;-140.67;100.00
2294;BME280;1155;42.644;23.264;2023-04-30T05:07:21;60101.66;;;-140.67;100.00
2294;BME280;1155;42.644;23.264;2023-04-30T05:09:49;60105.75;;;-140.67;85.48
2294;BME280;1155;42.644;23.264;2023-04-30T05:12:16;60126.22;;;-140.67;66.49
2294;BME280;1155;42.644;23.264;2023-04-30T05:14:42;60120.09;;;-140.67;75.78
2294;BME280;1155;42.644;23.264;2023-04-30T05:17:09;60118.03;;;-140.67;62.42
2294;BME280;1155;42.644;23.264;2023-04-30T05:20:16;60118.03;;;-140.67;75.27
2294;BME280;1155;42.644;23.264;2023-04-30T05:22:50;60083.22;;;-140.67;95.25
2294;BME280;1155;42.644;23.264;2023-04-30T05:25:18;60109.84;;;-140.67;96.02
2294;BME280;1155;42.644;23.264;2023-04-30T05:27:46;60103.69;;;-140.67;93.92
2294;BME280;1155;42.644;23.264;2023-04-30T05:30:12;60116.00;;;-140.67;93.47
2294;BME280;1155;42.644;23.264;2023-04-30T05:32:40;60136.47;;;-140.67;97.26
2294;BME280;1155;42.644;23.264;2023-04-30T05:35:08;60124.19;;;-140.67;99.92
2294;BME280;1155;42.644;23.264;2023-04-30T05:37:35;60107.78;;;-140.67;97.38
2294;BME280;1155;42.644;23.264;2023-04-30T05:40:02;60124.19;;;-140.67;97.28
2294;BME280;1155;42.644;23.264;2023-04-30T05:42:32;60109.84;;;-140.67;95.14
2294;BME280;1155;42.644;23.264;2023-04-30T05:44:58;60138.50;;;-140.67;93.13
2294;BME280;1155;42.644;23.264;2023-04-30T05:47:25;60105.75;;;-140.67;70.31
2294;BME280;1155;42.644;23.264;2023-04-30T05:49:52;60116.00;;;-140.67;74.28
2294;BME280;1155;42.644;23.264;2023-04-30T05:52:19;60113.94;;;-140.67;55.42
2294;BME280;1155;42.644;23.264;2023-04-30T05:54:46;60109.84;;;-140.67;57.22
2294;BME280;1155;42.644;23.264;2023-04-30T05:57:13;60118.03;;;-140.67;52.74
2294;BME280;1155;42.644;23.264;2023-04-30T05:59:41;60120.09;;;-140.67;59.44
2294;BME280;1155;42.644;23.264;2023-04-30T06:02:08;60134.41;;;-140.67;66.19
2294;BME280;1155;42.644;23.264;2023-04-30T06:04:35;60118.03;;;-140.67;68.18
2294;BME280;1155;42.644;23.264;2023-04-30T06:07:02;60113.94;;;-140.67;70.06
2294;BME280;1155;42.644;23.264;2023-04-30T06:09:28;60111.91;;;-140.67;67.71
2294;BME280;1155;42.644;23.264;2023-04-30T06:11:55;60130.31;;;-140.67;62.20
2294;BME280;1155;42.644;23.264;2023-04-30T06:14:22;60126.22;;;-140.67;69.16
2294;BME280;1155;42.644;23.264;2023-04-30T06:16:51;60126.22;;;-140.67;67.49
2294;BME280;1155;42.644;23.264;2023-04-30T06:19:18;60111.91;;;-140.67;56.77
2294;BME280;1155;42.644;23.264;2023-04-30T06:21:45;60109.84;;;-140.67;53.59
2294;BME280;1155;42.644;23.264;2023-04-30T06:24:12;60128.28;;;-140.67;55.81
2294;BME280;1155;42.644;23.264;2023-04-30T06:26:39;60118.03;;;-140.67;59.00
2294;BME280;1155;42.644;23.264;2023-04-30T06:29:05;60126.22;;;-140.67;58.72
2294;BME280;1155;42.644;23.264;2023-04-30T06:31:32;60134.41;;;-140.67;63.84
2294;BME280;1155;42.644;23.264;2023-04-30T06:34:00;60118.03;;;-140.67;63.59
2294;BME280;1155;42.644;23.264;2023-04-30T06:36:27;60122.13;;;-140.67;69.13
2294;BME280;1155;42.644;23.264;2023-04-30T06:38:54;60111.91;;;-140.67;72.77
2294;BME280;1155;42.644;23.264;2023-04-30T06:41:21;60116.00;;;-140.67;73.24
2294;BME280;1155;42.644;23.264;2023-04-30T06:43:47;60122.13;;;-140.67;75.52
2294;BME280;1155;42.644;23.264;2023-04-30T06:46:14;60124.19;;;-140.67;68.96
2294;BME280;1155;42.644;23.264;2023-04-30T06:48:41;60126.22;;;-140.67;61.70
2294;BME280;1155;42.644;23.264;2023-04-30T06:51:09;60138.50;;;-140.67;59.11
2294;BME280;1155;42.644;23.264;2023-04-30T06:53:36;60116.00;;;-140.67;55.77
2294;BME280;1155;42.644;23.264;2023-04-30T06:56:03;60138.50;;;-140.67;51.63
2294;BME280;1155;42.644;23.264;2023-04-30T06:58:30;60128.28;;;-140.67;50.20
2294;BME280;1155;42.644;23.264;2023-04-30T07:00:57;60148.75;;;-140.67;43.37
2294;BME280;1155;42.644;23.264;2023-04-30T07:03:24;60142.59;;;-140.67;46.69
2294;BME280;1155;42.644;23.264;2023-04-30T07:05:51;60134.41;;;-140.67;50.27
2294;BME280;1155;42.644;23.264;2023-04-30T07:08:20;60146.72;;;-140.67;49.42
2294;BME280;1155;42.644;23.264;2023-04-30T07:10:46;60130.31;;;-140.67;48.08
2294;BME280;1155;42.644;23.264;2023-04-30T07:13:13;60130.31;;;-140.67;48.62
2294;BME280;1155;42.644;23.264;2023-04-30T07:15:40;60136.47;;;-140.67;44.04
2294;BME280;1155;42.644;23.264;2023-04-30T07:18:11;60140.56;;;-140.67;41.06
2294;BME280;1155;42.644;23.264;2023-04-30T07:20:38;60130.31;;;-140.67;41.80
2294;BME280;1155;42.644;23.264;2023-04-30T07:23:05;60140.56;;;-140.67;41.26
2294;BME280;1155;42.644;23.264;2023-04-30T07:25:33;60150.81;;;-140.67;40.96
2294;BME280;1155;42.644;23.264;2023-04-30T07:28:00;60124.19;;;-140.67;40.66
2294;BME280;1155;42.644;23.264;2023-04-30T07:30:27;60152.84;;;-140.67;41.05
2294;BME280;1155;42.644;23.264;2023-04-30T07:32:54;60150.81;;;-140.67;42.28
2294;BME280;1155;42.644;23.264;2023-04-30T07:35:21;60134.41;;;-140.67;41.34
2294;BME280;1155;42.644;23.264;2023-04-30T07:37:48;60118.03;;;-140.67;42.31
2294;BME280;1155;42.644;23.264;2023-04-30T07:40:15;60130.31;;;-140.67;42.55
2294;BME280;1155;42.644;23.264;2023-04-30T07:42:43;60118.03;;;-140.67;44.87
2294;BME280;1155;42.644;23.264;2023-04-30T07:45:10;60118.03;;;-140.67;45.73
2294;BME280;1155;42.644;23.264;2023-04-30T07:47:37;60116.00;;;-140.67;45.99
2294;BME280;1155;42.644;23.264;2023-04-30T07:50:05;60122.13;;;-140.67;46.41
2294;BME280;1155;42.644;23.264;2023-04-30T07:52:32;60113.94;;;-140.67;47.22
2294;BME280;1155;42.644;23.264;2023-04-30T07:54:59;60126.22;;;-140.67;49.08
2294;BME280;1155;42.644;23.264;2023-04-30T07:57:26;60118.03;;;-140.67;48.13
2294;BME280;1155;42.644;23.264;2023-04-30T07:59:54;60111.91;;;-140.67;48.14
2294;BME280;1155;42.644;23.264;2023-04-30T08:02:22;60081.19;;;-140.67;48.69
2294;BME280;1155;42.644;23.264;2023-04-30T08:04:50;60134.41;;;-140.67;50.88
2294;BME280;1155;42.644;23.264;2023-04-30T08:07:19;60165.13;;;-140.67;52.70
2294;BME280;1155;42.644;23.264;2023-04-30T08:09:46;60120.09;;;-140.67;53.63
2294;BME280;1155;42.644;23.264;2023-04-30T08:12:13;60113.94;;;-140.67;52.53
2294;BME280;1155;42.644;23.264;2023-04-30T08:14:40;60136.47;;;-140.67;51.45
2294;BME280;1155;42.644;23.264;2023-04-30T08:17:08;60136.47;;;-140.67;52.71
2294;BME280;1155;42.644;23.264;2023-04-30T08:19:36;60140.56;;;-140.67;49.70
2294;BME280;1155;42.644;23.264;2023-04-30T08:22:03;60118.03;;;-140.67;49.34
2294;BME280;1155;42.644;23.264;2023-04-30T08:24:29;60144.66;;;-140.67;47.43
2294;BME280;1155;42.644;23.264;2023-04-30T08:26:56;60111.91;;;-140.67;45.01
2294;BME280;1155;42.644;23.264;2023-04-30T08:29:25;60159.00;;;-140.67;44.08
2294;BME280;1155;42.644;23.264;2023-04-30T08:31:52;60128.28;;;-140.67;42.76
2294;BME280;1155;42.644;23.264;2023-04-30T08:34:20;60130.31;;;-140.67;41.79
2294;BME280;1155;42.644;23.264;2023-04-30T08:36:49;60171.28;;;-140.67;41.79
2294;BME280;1155;42.644;23.264;2023-04-30T08:39:16;60154.91;;;-140.67;39.73
2294;BME280;1155;42.644;23.264;2023-04-30T08:41:45;60165.13;;;-140.67;37.34
2294;BME280;1155;42.644;23.264;2023-04-30T08:44:13;60163.09;;;-140.67;38.26
2294;BME280;1155;42.644;23.264;2023-04-30T08:46:41;60146.72;;;-140.67;37.49
2294;BME280;1155;42.644;23.264;2023-04-30T08:49:09;60175.38;;;-140.67;35.84
2294;BME280;1155;42.644;23.264;2023-04-30T08:51:38;60179.47;;;-140.67;35.24
2294;BME280;1155;42.644;23.264;2023-04-30T08:54:05;60142.59;;;-140.67;35.35
2294;BME280;1155;42.644;23.264;2023-04-30T08:56:32;60177.41;;;-140.67;35.96
2294;BME280;1155;42.644;23.264;2023-04-30T08:58:59;60183.56;;;-140.67;34.27
2294;BME280;1155;42.644;23.264;2023-04-30T09:01:27;60175.38;;;-140.67;35.46
2294;BME280;1155;42.644;23.264;2023-04-30T09:03:54;60150.81;;;-140.67;34.59
2294;BME280;1155;42.644;23.264;2023-04-30T09:06:20;60177.41;;;-140.67;35.26
2294;BME280;1155;42.644;23.264;2023-04-30T09:08:49;60142.59;;;-140.67;35.22
2294;BME280;1155;42.644;23.264;2023-04-30T09:11:21;60152.84;;;-140.67;36.72
2294;BME280;1155;42.644;23.264;2023-04-30T09:13:49;60150.81;;;-140.67;34.74
2294;BME280;1155;42.644;23.264;2023-04-30T09:16:17;60144.66;;;-140.67;33.89
2294;BME280;1155;42.644;23.264;2023-04-30T09:18:43;60183.56;;;-140.67;33.50
2294;BME280;1155;42.644;23.264;2023-04-30T09:21:10;60197.91;;;-140.67;33.55
2294;BME280;1155;42.644;23.264;2023-04-30T09:23:57;60187.66;;;-140.67;33.82
2294;BME280;1155;42.644;23.264;2023-04-30T09:26:31;60167.19;;;-140.67;33.05
2294;BME280;1155;42.644;23.264;2023-04-30T09:28:58;60167.19;;;-140.67;32.93
2294;BME280;1155;42.644;23.264;2023-04-30T09:31:26;60195.84;;;-140.67;33.80
2294;BME280;1155;42.644;23.264;2023-04-30T09:33:53;60187.66;;;-140.67;32.46
2294;BME280;1155;42.644;23.264;2023-04-30T09:39:47;60240.91;;;-140.67;29.20
2294;BME280;1155;42.644;23.264;2023-04-30T09:42:18;60206.09;;;-140.67;29.43
2294;BME280;1155;42.644;23.264;2023-04-30T09:44:46;60220.41;;;-140.67;29.32
2294;BME280;1155;42.644;23.264;2023-04-30T09:47:14;60212.22;;;-140.67;29.86
2294;BME280;1155;42.644;23.264;2023-04-30T09:49:42;60220.41;;;-140.67;27.62
2294;BME280;1155;42.644;23.264;2023-04-30T09:52:10;60220.41;;;-140.67;28.03
2294;BME280;1155;42.644;23.264;2023-04-30T09:54:39;60179.47;;;-140.67;28.43
2294;BME280;1155;42.644;23.264;2023-04-30T09:57:09;60187.66;;;-140.67;29.65
2294;BME280;1155;42.644;23.264;2023-04-30T09:59:42;60163.09;;;-140.67;30.58
2294;BME280;1155;42.644;23.264;2023-04-30T10:02:09;60183.56;;;-140.67;30.67
2294;BME280;1155;42.644;23.264;2023-04-30T10:04:37;60175.38;;;-140.67;30.82
2294;BME280;1155;42.644;23.264;2023-04-30T10:07:07;60185.59;;;-140.67;30.50
2294;BME280;1155;42.644;23.264;2023-04-30T10:09:40;60173.31;;;-140.67;31.19
2294;BME280;1155;42.644;23.264;2023-04-30T10:12:13;60183.56;;;-140.67;31.19
2294;BME280;1155;42.644;23.264;2023-04-30T10:14:44;60132.38;;;-140.67;32.49
2294;BME280;1155;42.644;23.264;2023-04-30T10:17:15;60150.81;;;-140.67;33.53
2294;BME280;1155;42.644;23.264;2023-04-30T10:19:46;60163.09;;;-140.67;34.53
2294;BME280;1155;42.644;23.264;2023-04-30T10:22:13;60150.81;;;-140.67;35.74
2294;BME280;1155;42.644;23.264;2023-04-30T10:24:42;60150.81;;;-140.67;36.68
2294;BME280;1155;42.644;23.264;2023-04-30T10:27:11;60150.81;;;-140.67;37.96
2294;BME280;1155;42.644;23.264;2023-04-30T10:29:38;60105.75;;;-140.67;42.02
2294;BME280;1155;42.644;23.264;2023-04-30T10:32:05;60140.56;;;-140.67;47.34
2294;BME280;1155;42.644;23.264;2023-04-30T10:34:40;60113.94;;;-140.67;57.65
2294;BME280;1155;42.644;23.264;2023-04-30T10:37:19;60109.84;;;-140.67;62.10
2294;BME280;1155;42.644;23.264;2023-04-30T10:39:49;60118.03;;;-140.67;71.13
2294;BME280;1155;42.644;23.264;2023-04-30T10:42:16;60124.19;;;-140.67;68.05
2294;BME280;1155;42.644;23.264;2023-04-30T10:44:43;60122.13;;;-140.67;60.71
2294;BME280;1155;42.644;23.264;2023-04-30T10:47:11;60138.50;;;-140.67;56.64
2294;BME280;1155;42.644;23.264;2023-04-30T10:49:38;60163.09;;;-140.67;49.54
2294;BME280;1155;42.644;23.264;2023-04-30T10:52:10;60202.00;;;-140.67;38.05
2294;BME280;1155;42.644;23.264;2023-04-30T10:54:37;60167.19;;;-140.67;35.51
2294;BME280;1155;42.644;23.264;2023-04-30T10:57:10;60177.41;;;-140.67;35.89
2294;BME280;1155;42.644;23.264;2023-04-30T10:59:41;60204.03;;;-140.67;34.56
2294;BME280;1155;42.644;23.264;2023-04-30T11:02:10;60195.84;;;-140.67;35.01
2294;BME280;1155;42.644;23.264;2023-04-30T11:05:07;60189.72;;;-140.67;35.20
2294;BME280;1155;42.644;23.264;2023-04-30T11:07:34;60169.22;;;-140.67;35.53
2294;BME280;1155;42.644;23.264;2023-04-30T11:10:01;60193.81;;;-140.67;32.10
2294;BME280;1155;42.644;23.264;2023-04-30T11:12:30;60159.00;;;-140.67;33.26
2294;BME280;1155;42.644;23.264;2023-04-30T11:15:00;60220.41;;;-140.67;31.21
2294;BME280;1155;42.644;23.264;2023-04-30T11:17:36;60247.03;;;-140.67;27.97
2294;BME280;1155;42.644;23.264;2023-04-30T11:20:19;60228.63;;;-140.67;27.41
2294;BME280;1155;42.644;23.264;2023-04-30T11:22:46;60242.94;;;-140.67;27.00
2294;BME280;1155;42.644;23.264;2023-04-30T11:25:18;60240.91;;;-140.67;27.42
2294;BME280;1155;42.644;23.264;2023-04-30T11:27:48;60185.59;;;-140.67;29.35
2294;BME280;1155;42.644;23.264;2023-04-30T11:30:17;60216.31;;;-140.67;29.97
2294;BME280;1155;42.644;23.264;2023-04-30T11:32:48;60183.56;;;-140.67;29.39
2294;BME280;1155;42.644;23.264;2023-04-30T11:35:16;60195.84;;;-140.67;30.10
2294;BME280;1155;42.644;23.264;2023-04-30T11:37:44;60173.31;;;-140.67;30.96
2294;BME280;1155;42.644;23.264;2023-04-30T11:40:13;60195.84;;;-140.67;31.26
2294;BME280;1155;42.644;23.264;2023-04-30T11:42:41;60191.75;;;-140.67;31.92
2294;BME280;1155;42.644;23.264;2023-04-30T11:45:13;60191.75;;;-140.67;29.33
2294;BME280;1155;42.644;23.264;2023-04-30T11:47:43;60189.72;;;-140.67;31.38
2294;BME280;1155;42.644;23.264;2023-04-30T11:50:12;60218.38;;;-140.67;30.57
2294;BME280;1155;42.644;23.264;2023-04-30T11:52:39;60249.09;;;-140.67;26.62
2294;BME280;1155;42.644;23.264;2023-04-30T11:55:13;60318.72;;;-140.67;24.99
2294;BME280;1155;42.644;23.264;2023-04-30T11:57:41;60294.13;;;-140.67;25.16
2294;BME280;1155;42.644;23.264;2023-04-30T12:00:15;60216.31;;;-140.67;26.74
2294;BME280;1155;42.644;23.264;2023-04-30T12:02:43;60220.41;;;-140.67;29.03
2294;BME280;1155;42.644;23.264;2023-04-30T12:05:12;60187.66;;;-140.67;28.13
2294;BME280;1155;42.644;23.264;2023-04-30T12:07:43;60208.13;;;-140.67;29.08
2294;BME280;1155;42.644;23.264;2023-04-30T12:10:11;60245.00;;;-140.67;28.07
2294;BME280;1155;42.644;23.264;2023-04-30T12:12:38;60220.41;;;-140.67;28.80
2294;BME280;1155;42.644;23.264;2023-04-30T12:15:10;60218.38;;;-140.67;30.59
2294;BME280;1155;42.644;23.264;2023-04-30T12:17:39;60179.47;;;-140.67;31.04
2294;BME280;1155;42.644;23.264;2023-04-30T12:20:07;60185.59;;;-140.67;33.88
2294;BME280;1155;42.644;23.264;2023-04-30T12:22:34;60169.22;;;-140.67;33.63
2294;BME280;1155;42.644;23.264;2023-04-30T12:25:05;60179.47;;;-140.67;34.37
2294;BME280;1155;42.644;23.264;2023-04-30T12:27:34;60208.13;;;-140.67;36.67
2294;BME280;1155;42.644;23.264;2023-04-30T12:30:03;60189.72;;;-140.67;37.30
2294;BME280;1155;42.644;23.264;2023-04-30T12:32:36;60163.09;;;-140.67;39.01
2294;BME280;1155;42.644;23.264;2023-04-30T12:35:06;60163.09;;;-140.67;41.68
2294;BME280;1155;42.644;23.264;2023-04-30T12:37:33;60183.56;;;-140.67;42.68
2294;BME280;1155;42.644;23.264;2023-04-30T12:40:00;60140.56;;;-140.67;41.42
2294;BME280;1155;42.644;23.264;2023-04-30T12:42:30;60120.09;;;-140.67;43.72
2294;BME280;1155;42.644;23.264;2023-04-30T12:44:58;60128.28;;;-140.67;46.55
2294;BME280;1155;42.644;23.264;2023-04-30T12:47:25;60138.50;;;-140.67;47.33
2294;BME280;1155;42.644;23.264;2023-04-30T12:49:52;60142.59;;;-140.67;47.67
2294;BME280;1155;42.644;23.264;2023-04-30T12:52:22;60161.03;;;-140.67;45.49
2294;BME280;1155;42.644;23.264;2023-04-30T12:54:49;60122.13;;;-140.67;46.12
2294;BME280;1155;42.644;23.264;2023-04-30T12:57:17;60181.50;;;-140.67;46.37
2294;BME280;1155;42.644;23.264;2023-04-30T12:59:56;60144.66;;;-140.67;48.14